Time,TemperatureF,DewpointF,PressureIn,WindDirection,WindDirectionDegrees,WindSpeedMPH,WindSpeedGustMPH,Humidity,HourlyPrecipIn,Conditions,Clouds,dailyrainin,SoftwareType,DateUTC
2013-02-05 00:01:00,35.0,9.0,29.88,NE,39,2.0,3.0,33,0.00,,,0.00,,2013-02-05 07:01:00,
2013-02-05 00:11:00,35.0,9.0,29.88,NE,39,2.0,3.0,33,0.00,,,0.00,,2013-02-05 07:11:00,
2013-02-05 00:22:00,34.0,9.0,29.88,NE,42,1.0,3.0,35,0.00,,,0.00,,2013-02-05 07:22:00,
2013-02-05 00:31:00,34.0,13.0,29.87,NE,44,2.0,3.0,42,0.00,,,0.00,,2013-02-05 07:31:00,
2013-02-05 00:41:00,34.0,13.0,29.87,NE,44,2.0,3.0,42,0.00,,,0.00,,2013-02-05 07:41:00,
2013-02-05 00:52:00,34.0,13.0,29.85,NE,44,0.0,4.0,41,0.00,,,0.00,,2013-02-05 07:52:00,
2013-02-05 01:01:00,42.0,10.0,29.86,WSW,256,9.0,15.0,26,0.00,,,0.00,,2013-02-05 08:01:00,
2013-02-05 01:21:00,45.0,9.0,29.85,WNW,298,6.0,16.0,23,0.00,,,0.00,,2013-02-05 08:21:00,
2013-02-05 01:31:00,45.0,9.0,29.84,WNW,298,5.0,17.0,23,0.00,,,0.00,,2013-02-05 08:31:00,
2013-02-05 01:52:00,44.0,10.0,29.85,NW,326,0.0,6.0,24,0.00,,,0.00,,2013-02-05 08:52:00,
2013-02-05 02:02:00,39.0,9.0,29.85,NNW,329,1.0,6.0,28,0.00,,,0.00,,2013-02-05 09:02:00,
2013-02-05 02:11:00,39.0,9.0,29.85,NNW,329,1.0,6.0,28,0.00,,,0.00,,2013-02-05 09:11:00,
2013-02-05 02:21:00,34.0,8.0,29.88,NNW,330,2.0,2.0,33,0.00,,,0.00,,2013-02-05 09:21:00,
2013-02-05 02:32:00,33.0,8.0,29.88,NNW,330,1.0,3.0,35,0.00,,,0.00,,2013-02-05 09:32:00,
2013-02-05 02:42:00,33.0,8.0,29.88,NNW,330,1.0,3.0,35,0.00,,,0.00,,2013-02-05 09:42:00,
2013-02-05 02:52:00,32.0,9.0,29.89,NNW,330,0.0,3.0,37,0.00,,,0.00,,2013-02-05 09:52:00,
2013-02-05 03:01:00,32.0,9.0,29.90,NNW,329,1.0,2.0,38,0.00,,,0.00,,2013-02-05 10:01:00,
2013-02-05 03:11:00,32.0,9.0,29.90,NNW,329,1.0,2.0,38,0.00,,,0.00,,2013-02-05 10:11:00,
2013-02-05 03:21:00,31.0,10.0,29.89,NNW,331,1.0,2.0,41,0.00,,,0.00,,2013-02-05 10:21:00,
2013-02-05 03:32:00,30.0,11.0,29.90,NNW,330,1.0,3.0,44,0.00,,,0.00,,2013-02-05 10:32:00,
2013-02-05 03:42:00,30.0,11.0,29.90,NNW,330,1.0,3.0,44,0.00,,,0.00,,2013-02-05 10:42:00,
2013-02-05 03:52:00,30.0,11.0,29.90,NNW,330,2.0,3.0,44,0.00,,,0.00,,2013-02-05 10:52:00,
2013-02-05 04:01:00,32.0,11.0,29.89,NNW,329,2.0,3.0,41,0.00,,,0.00,,2013-02-05 11:01:00,
2013-02-05 04:11:00,32.0,11.0,29.89,NNW,329,2.0,3.0,41,0.00,,,0.00,,2013-02-05 11:11:00,
2013-02-05 04:22:00,33.0,12.0,29.89,NNW,330,0.0,3.0,42,0.00,,,0.00,,2013-02-05 11:22:00,
2013-02-05 04:32:00,32.0,11.0,29.90,NNW,329,0.0,2.0,41,0.00,,,0.00,,2013-02-05 11:32:00,
2013-02-05 04:42:00,32.0,11.0,29.90,NNW,329,0.0,2.0,41,0.00,,,0.00,,2013-02-05 11:42:00,
2013-02-05 04:52:00,32.0,11.0,29.91,NNW,329,0.0,2.0,41,0.00,,,0.00,,2013-02-05 11:52:00,
2013-02-05 05:01:00,31.0,10.0,29.93,NNW,329,2.0,2.0,41,0.00,,,0.00,,2013-02-05 12:01:00,
2013-02-05 05:12:00,31.0,10.0,29.93,NNW,329,2.0,2.0,41,0.00,,,0.00,,2013-02-05 12:12:00,
2013-02-05 05:22:00,30.0,10.0,29.93,NNW,329,1.0,2.0,42,0.00,,,0.00,,2013-02-05 12:22:00,
2013-02-05 05:32:00,31.0,11.0,29.94,NNW,329,2.0,3.0,43,0.00,,,0.00,,2013-02-05 12:32:00,
2013-02-05 05:42:00,31.0,11.0,29.94,NNW,329,2.0,3.0,43,0.00,,,0.00,,2013-02-05 12:42:00,
2013-02-05 05:52:00,30.0,11.0,29.94,NNW,329,2.0,4.0,44,0.00,,,0.00,,2013-02-05 12:52:00,
2013-02-05 06:01:00,30.0,12.0,29.94,NNW,329,1.0,3.0,46,0.00,,,0.00,,2013-02-05 13:01:00,
2013-02-05 06:12:00,30.0,12.0,29.94,NNW,329,1.0,3.0,46,0.00,,,0.00,,2013-02-05 13:12:00,
2013-02-05 06:22:00,29.0,13.0,29.94,NNW,328,0.0,2.0,50,0.00,,,0.00,,2013-02-05 13:22:00,
2013-02-05 06:32:00,28.0,11.0,29.94,NNW,329,2.0,2.0,49,0.00,,,0.00,,2013-02-05 13:32:00,
2013-02-05 06:42:00,28.0,11.0,29.94,NNW,329,2.0,2.0,49,0.00,,,0.00,,2013-02-05 13:42:00,
2013-02-05 06:52:00,28.0,11.0,29.94,NNW,329,2.0,3.0,48,0.00,,,0.00,,2013-02-05 13:52:00,
2013-02-05 07:01:00,29.0,11.0,29.94,NNW,329,1.0,2.0,47,0.00,,,0.00,,2013-02-05 14:01:00,
2013-02-05 07:12:00,29.0,11.0,29.94,NNW,329,1.0,2.0,47,0.00,,,0.00,,2013-02-05 14:12:00,
2013-02-05 07:21:00,29.0,12.0,29.97,NNW,329,1.0,2.0,48,0.00,,,0.00,,2013-02-05 14:21:00,
2013-02-05 07:31:00,29.0,16.0,29.96,NNW,329,0.0,2.0,59,0.00,,,0.00,,2013-02-05 14:31:00,
2013-02-05 07:42:00,29.0,16.0,29.96,NNW,329,0.0,2.0,59,0.00,,,0.00,,2013-02-05 14:42:00,
2013-02-05 07:52:00,28.0,13.0,29.97,NNW,329,0.0,2.0,53,0.00,,,0.00,,2013-02-05 14:52:00,
2013-02-05 08:02:00,28.0,14.0,29.98,NNW,329,0.0,2.0,54,0.00,,,0.00,,2013-02-05 15:02:00,
2013-02-05 08:11:00,28.0,14.0,29.98,NNW,329,0.0,2.0,54,0.00,,,0.00,,2013-02-05 15:11:00,
2013-02-05 08:21:00,29.0,13.0,29.98,NNW,329,1.0,2.0,50,0.00,,,0.00,,2013-02-05 15:21:00,
2013-02-05 08:32:00,31.0,15.0,29.98,NNW,329,1.0,2.0,51,0.00,,,0.00,,2013-02-05 15:32:00,
2013-02-05 08:41:00,31.0,15.0,29.98,NNW,329,1.0,2.0,51,0.00,,,0.00,,2013-02-05 15:41:00,
2013-02-05 08:52:00,34.0,14.0,29.99,NNW,329,0.0,3.0,43,0.00,,,0.00,,2013-02-05 15:52:00,
2013-02-05 09:01:00,38.0,13.0,29.98,SW,215,3.0,7.0,35,0.00,,,0.00,,2013-02-05 16:01:00,
2013-02-05 09:22:00,40.0,13.0,29.97,SW,223,3.0,6.0,32,0.00,,,0.00,,2013-02-05 16:22:00,
2013-02-05 09:32:00,42.0,12.0,29.99,WSW,242,2.0,6.0,29,0.00,,,0.00,,2013-02-05 16:32:00,
2013-02-05 09:42:00,42.0,12.0,29.99,WSW,242,2.0,6.0,29,0.00,,,0.00,,2013-02-05 16:42:00,
2013-02-05 09:52:00,43.0,12.0,29.98,South,179,0.0,9.0,28,0.00,,,0.00,,2013-02-05 16:52:00,
2013-02-05 10:01:00,45.0,13.0,29.98,SSW,195,3.0,6.0,27,0.00,,,0.00,,2013-02-05 17:01:00,
2013-02-05 10:11:00,45.0,13.0,29.98,SSW,195,3.0,6.0,27,0.00,,,0.00,,2013-02-05 17:11:00,
2013-02-05 10:21:00,45.0,13.0,30.00,SSW,200,1.0,4.0,27,0.00,,,0.00,,2013-02-05 17:21:00,
2013-02-05 10:32:00,44.0,13.0,30.00,South,171,3.0,7.0,28,0.00,,,0.00,,2013-02-05 17:32:00,
2013-02-05 10:42:00,44.0,13.0,30.00,South,171,3.0,7.0,28,0.00,,,0.00,,2013-02-05 17:42:00,
2013-02-05 10:52:00,44.0,13.0,30.01,SSW,198,1.0,6.0,28,0.00,,,0.00,,2013-02-05 17:52:00,
2013-02-05 11:02:00,44.0,13.0,30.01,ESE,103,0.0,5.0,28,0.00,,,0.00,,2013-02-05 18:02:00,
2013-02-05 11:11:00,44.0,13.0,30.01,ESE,103,0.0,5.0,28,0.00,,,0.00,,2013-02-05 18:11:00,
2013-02-05 11:22:00,45.0,14.0,30.00,SSE,165,0.0,4.0,28,0.00,,,0.00,,2013-02-05 18:22:00,
2013-02-05 11:32:00,45.0,15.0,30.01,SSW,198,0.0,6.0,29,0.00,,,0.00,,2013-02-05 18:32:00,
2013-02-05 11:42:00,45.0,15.0,30.01,SSW,198,0.0,6.0,29,0.00,,,0.00,,2013-02-05 18:42:00,
2013-02-05 11:52:00,44.0,15.0,30.00,SSW,212,3.0,6.0,30,0.00,,,0.00,,2013-02-05 18:52:00,
2013-02-05 12:02:00,47.0,16.0,29.98,WSW,252,0.0,5.0,28,0.00,,,0.00,,2013-02-05 19:02:00,
2013-02-05 12:11:00,47.0,16.0,29.98,WSW,252,0.0,5.0,28,0.00,,,0.00,,2013-02-05 19:11:00,
2013-02-05 12:21:00,49.0,16.0,29.97,SSW,211,3.0,5.0,26,0.00,,,0.00,,2013-02-05 19:21:00,
2013-02-05 12:32:00,50.0,15.0,29.96,SSW,196,2.0,7.0,24,0.00,,,0.00,,2013-02-05 19:32:00,
2013-02-05 12:42:00,50.0,15.0,29.96,SSW,196,2.0,7.0,24,0.00,,,0.00,,2013-02-05 19:42:00,
2013-02-05 12:52:00,50.0,15.0,29.93,SW,233,3.0,8.0,24,0.00,,,0.00,,2013-02-05 19:52:00,
2013-02-05 13:01:00,50.0,16.0,29.93,SSW,213,2.0,6.0,25,0.00,,,0.00,,2013-02-05 20:01:00,
2013-02-05 13:11:00,50.0,16.0,29.93,SSW,213,2.0,6.0,25,0.00,,,0.00,,2013-02-05 20:11:00,
2013-02-05 13:21:00,51.0,16.0,29.93,SSW,209,0.0,7.0,24,0.00,,,0.00,,2013-02-05 20:21:00,
2013-02-05 13:32:00,52.0,14.0,29.91,SW,220,2.0,5.0,22,0.00,,,0.00,,2013-02-05 20:32:00,
2013-02-05 13:42:00,52.0,14.0,29.91,SW,220,2.0,5.0,22,0.00,,,0.00,,2013-02-05 20:42:00,
2013-02-05 13:52:00,52.0,14.0,29.90,WSW,242,1.0,6.0,22,0.00,,,0.00,,2013-02-05 20:52:00,
2013-02-05 14:02:00,52.0,14.0,29.88,WSW,241,0.0,4.0,22,0.00,,,0.00,,2013-02-05 21:02:00,
2013-02-05 14:11:00,52.0,14.0,29.88,WSW,241,0.0,4.0,22,0.00,,,0.00,,2013-02-05 21:11:00,
2013-02-05 14:22:00,51.0,15.0,29.88,WSW,241,0.0,3.0,23,0.00,,,0.00,,2013-02-05 21:22:00,
2013-02-05 14:32:00,50.0,14.0,29.87,SW,226,1.0,2.0,23,0.00,,,0.00,,2013-02-05 21:32:00,
2013-02-05 14:42:00,50.0,14.0,29.87,SW,226,1.0,2.0,23,0.00,,,0.00,,2013-02-05 21:42:00,
2013-02-05 14:52:00,51.0,15.0,29.88,SW,232,0.0,4.0,23,0.00,,,0.00,,2013-02-05 21:52:00,
2013-02-05 15:01:00,51.0,15.0,29.88,SW,231,0.0,3.0,23,0.00,,,0.00,,2013-02-05 22:01:00,
2013-02-05 15:11:00,51.0,15.0,29.88,SW,231,0.0,3.0,23,0.00,,,0.00,,2013-02-05 22:11:00,
2013-02-05 15:21:00,51.0,15.0,29.87,SW,233,0.0,1.0,23,0.00,,,0.00,,2013-02-05 22:21:00,
2013-02-05 15:32:00,52.0,15.0,29.87,SW,232,0.0,3.0,23,0.00,,,0.00,,2013-02-05 22:32:00,
2013-02-05 15:42:00,52.0,15.0,29.87,SW,232,0.0,3.0,23,0.00,,,0.00,,2013-02-05 22:42:00,
2013-02-05 15:52:00,51.0,16.0,29.86,SW,232,0.0,1.0,24,0.00,,,0.00,,2013-02-05 22:52:00,
2013-02-05 16:02:00,51.0,16.0,29.86,SW,233,0.0,1.0,24,0.00,,,0.00,,2013-02-05 23:02:00,
2013-02-05 16:11:00,51.0,16.0,29.86,SW,233,0.0,1.0,24,0.00,,,0.00,,2013-02-05 23:11:00,
2013-02-05 16:22:00,51.0,16.0,29.85,SW,232,0.0,1.0,24,0.00,,,0.00,,2013-02-05 23:22:00,
2013-02-05 16:32:00,51.0,15.0,29.85,SW,234,0.0,1.0,23,0.00,,,0.00,,2013-02-05 23:32:00,
2013-02-05 16:42:00,51.0,15.0,29.85,SW,234,0.0,1.0,23,0.00,,,0.00,,2013-02-05 23:42:00,
2013-02-05 16:52:00,51.0,15.0,29.84,WSW,237,2.0,2.0,23,0.00,,,0.00,,2013-02-05 23:52:00,
2013-02-05 17:02:00,50.0,15.0,29.83,NNW,340,1.0,5.0,24,0.00,,,0.00,,2013-02-06 00:02:00,
2013-02-05 17:11:00,50.0,15.0,29.83,NNW,340,1.0,5.0,24,0.00,,,0.00,,2013-02-06 00:11:00,
2013-02-05 17:22:00,49.0,14.0,29.85,NNW,340,3.0,4.0,24,0.00,,,0.00,,2013-02-06 00:22:00,
2013-02-05 17:32:00,48.0,14.0,29.83,NNW,342,0.0,4.0,25,0.00,,,0.00,,2013-02-06 00:32:00,
2013-02-05 17:42:00,48.0,14.0,29.83,NNW,342,0.0,4.0,25,0.00,,,0.00,,2013-02-06 00:42:00,
2013-02-05 17:52:00,47.0,14.0,29.83,NNW,341,0.0,3.0,26,0.00,,,0.00,,2013-02-06 00:52:00,
2013-02-05 18:02:00,45.0,14.0,29.84,NNW,341,0.0,2.0,28,0.00,,,0.00,,2013-02-06 01:02:00,
2013-02-05 18:11:00,45.0,14.0,29.84,NNW,341,0.0,2.0,28,0.00,,,0.00,,2013-02-06 01:11:00,
2013-02-05 18:22:00,44.0,14.0,29.85,NNW,341,1.0,3.0,29,0.00,,,0.00,,2013-02-06 01:22:00,
2013-02-05 18:32:00,44.0,15.0,29.83,NNW,341,2.0,2.0,30,0.00,,,0.00,,2013-02-06 01:32:00,
2013-02-05 18:42:00,44.0,15.0,29.83,NNW,341,2.0,2.0,30,0.00,,,0.00,,2013-02-06 01:42:00,
2013-02-05 18:53:00,43.0,14.0,29.83,NNW,340,0.0,2.0,31,0.00,,,0.00,,2013-02-06 01:53:00,
2013-02-05 19:01:00,43.0,14.0,29.83,NNW,342,0.0,0.0,31,0.00,,,0.00,,2013-02-06 02:01:00,
2013-02-05 19:11:00,43.0,14.0,29.83,NNW,342,0.0,0.0,31,0.00,,,0.00,,2013-02-06 02:11:00,
2013-02-05 19:22:00,43.0,14.0,29.84,NNW,341,0.0,0.0,30,0.00,,,0.00,,2013-02-06 02:22:00,
2013-02-05 19:32:00,42.0,14.0,29.84,NNW,341,0.0,1.0,31,0.00,,,0.00,,2013-02-06 02:32:00,
2013-02-05 19:42:00,42.0,14.0,29.84,NNW,341,0.0,1.0,31,0.00,,,0.00,,2013-02-06 02:42:00,
2013-02-05 19:52:00,42.0,14.0,29.85,NNW,340,0.0,1.0,32,0.00,,,0.00,,2013-02-06 02:52:00,
2013-02-05 20:02:00,42.0,14.0,29.84,NNW,340,0.0,1.0,32,0.00,,,0.00,,2013-02-06 03:02:00,
2013-02-05 20:12:00,42.0,14.0,29.84,NNW,340,0.0,1.0,32,0.00,,,0.00,,2013-02-06 03:12:00,
2013-02-05 20:22:00,42.0,15.0,29.84,NNW,342,0.0,1.0,33,0.00,,,0.00,,2013-02-06 03:22:00,
2013-02-05 20:32:00,42.0,16.0,29.84,NNW,341,2.0,3.0,35,0.00,,,0.00,,2013-02-06 03:32:00,
2013-02-05 20:42:00,42.0,16.0,29.84,NNW,341,2.0,3.0,35,0.00,,,0.00,,2013-02-06 03:42:00,
2013-02-05 20:53:00,41.0,19.0,29.83,NNW,341,1.0,3.0,40,0.00,,,0.00,,2013-02-06 03:53:00,
2013-02-05 21:02:00,40.0,17.0,29.83,NNW,341,2.0,3.0,39,0.00,,,0.00,,2013-02-06 04:02:00,
2013-02-05 21:11:00,40.0,17.0,29.83,NNW,341,2.0,3.0,39,0.00,,,0.00,,2013-02-06 04:11:00,
2013-02-05 21:21:00,40.0,16.0,29.81,NNW,341,3.0,4.0,37,0.00,,,0.00,,2013-02-06 04:21:00,
2013-02-05 21:31:00,40.0,16.0,29.81,NNW,341,0.0,3.0,37,0.00,,,0.00,,2013-02-06 04:31:00,
2013-02-05 21:42:00,40.0,16.0,29.81,NNW,341,0.0,3.0,37,0.00,,,0.00,,2013-02-06 04:42:00,
2013-02-05 21:52:00,40.0,16.0,29.81,NNW,341,0.0,2.0,38,0.00,,,0.00,,2013-02-06 04:52:00,
2013-02-05 22:02:00,40.0,16.0,29.81,NNW,341,0.0,2.0,37,0.00,,,0.00,,2013-02-06 05:02:00,
2013-02-05 22:12:00,40.0,16.0,29.81,NNW,341,0.0,2.0,37,0.00,,,0.00,,2013-02-06 05:12:00,
2013-02-05 22:22:00,40.0,15.0,29.83,NNW,340,1.0,2.0,36,0.00,,,0.00,,2013-02-06 05:22:00,
2013-02-05 22:31:00,40.0,16.0,29.81,NNW,341,2.0,3.0,38,0.00,,,0.00,,2013-02-06 05:31:00,
2013-02-05 22:41:00,40.0,16.0,29.81,NNW,341,2.0,3.0,38,0.00,,,0.00,,2013-02-06 05:41:00,
2013-02-05 22:53:00,40.0,16.0,29.80,NNW,341,0.0,3.0,37,0.00,,,0.00,,2013-02-06 05:53:00,
2013-02-05 23:01:00,40.0,16.0,29.80,NNW,341,0.0,3.0,37,0.00,,,0.00,,2013-02-06 06:01:00,
2013-02-05 23:11:00,40.0,16.0,29.80,NNW,341,0.0,3.0,37,0.00,,,0.00,,2013-02-06 06:11:00,
2013-02-05 23:21:00,38.0,17.0,29.82,NNW,341,1.0,3.0,42,0.00,,,0.00,,2013-02-06 06:21:00,
2013-02-05 23:31:00,38.0,16.0,29.80,NNW,340,0.0,3.0,40,0.00,,,0.00,,2013-02-06 06:31:00,
2013-02-05 23:42:00,38.0,16.0,29.80,NNW,340,0.0,3.0,40,0.00,,,0.00,,2013-02-06 06:42:00,
2013-02-05 23:52:00,38.0,17.0,29.81,NNW,341,2.0,3.0,42,0.00,,,0.00,,2013-02-06 06:52:00,